Time;durP1;ratioP1;P1;durP2;ratioP2;P2;SDS_P1;SDS_P2;PMS_P1;PMS_P2;Temp;Humidity;BMP_temperature;BMP_pressure;BME280_temperature;BME280_humidity;BME280_pressure;Samples;Min_cycle;Max_cycle;Signal;HPM_P1;HPM_P2
2022/08/23 00:00:24;;;;;;;1.50;1.40;;;;;;;19.56;48.55;96625.94;4898555;29;20500;-73
2022/08/23 00:02:53;;;;;;;2.92;1.30;;;;;;;19.54;47.81;96628.00;4898817;29;20055;-73
2022/08/23 00:05:21;;;;;;;1.88;1.70;;;;;;;19.47;47.64;96637.94;4898931;29;20055;-74
2022/08/23 00:07:48;;;;;;;4.30;1.50;;;;;;;19.38;47.73;96629.59;4898649;29;20052;-74
2022/08/23 00:10:17;;;;;;;2.38;1.27;;;;;;;19.32;47.94;96635.81;4898465;29;20052;-74
2022/08/23 00:12:46;;;;;;;3.38;2.03;;;;;;;19.23;48.12;96627.47;4898031;29;20055;-73
2022/08/23 00:15:17;;;;;;;2.17;1.38;;;;;;;19.11;48.21;96634.63;4898534;29;20147;-73
2022/08/23 00:17:45;;;;;;;2.78;1.67;;;;;;;19.01;48.40;96631.81;4898514;29;20049;-74
2022/08/23 00:20:17;;;;;;;3.10;1.60;;;;;;;18.92;48.75;96632.16;4898344;29;20135;-73
2022/08/23 00:22:45;;;;;;;5.13;1.70;;;;;;;18.84;48.88;96627.22;4898281;29;20099;-74
2022/08/23 00:25:14;;;;;;;2.75;1.60;;;;;;;18.78;48.94;96622.88;4898597;29;20132;-73
2022/08/23 00:27:41;;;;;;;3.10;1.70;;;;;;;18.73;48.97;96620.91;4898474;29;20053;-74
2022/08/23 00:30:13;;;;;;;1.63;1.17;;;;;;;18.71;49.24;96620.31;4898045;29;20056;-73
2022/08/23 00:32:42;;;;;;;3.03;1.50;;;;;;;18.69;49.12;96617.13;4898544;29;20167;-73
2022/08/23 00:35:12;;;;;;;3.72;1.90;;;;;;;18.66;49.51;96616.78;4898376;29;20586;-74
2022/08/23 00:37:53;;;;;;;1.73;1.63;;;;;;;18.60;49.53;96618.50;4898115;29;20456;-73
2022/08/23 00:40:42;;;;;;;3.47;1.60;;;;;;;18.52;49.70;96622.31;4897388;29;20056;-73
2022/08/23 00:48:50;;;;;;;2.60;1.33;;;;;;;18.55;52.17;96618.41;4896134;29;20098;-74
2022/08/23 00:51:27;;;;;;;2.38;1.52;;;;;;;18.64;54.80;96624.16;4904287;29;20327;-73
2022/08/23 00:53:58;;;;;;;2.17;1.52;;;;;;;18.65;51.36;96623.09;4920064;29;20037;-73
2022/08/23 00:56:27;;;;;;;1.92;1.58;;;;;;;18.66;52.33;96624.72;4920097;29;20051;-73
2022/08/23 00:58:56;;;;;;;2.60;1.70;;;;;;;18.64;51.27;96613.56;4901853;29;20500;-73
2022/08/23 01:01:26;;;;;;;2.67;2.08;;;;;;;18.59;50.83;96618.75;4897813;29;20080;-73
2022/08/23 01:03:56;;;;;;;3.75;1.40;;;;;;;18.52;50.76;96614.41;4897917;29;20052;-73
2022/08/23 01:06:34;;;;;;;3.03;1.70;;;;;;;18.46;50.80;96622.44;4897735;29;20092;-73
2022/08/23 01:09:05;;;;;;;2.85;1.60;;;;;;;18.39;50.66;96625.22;4897441;29;20104;-73
2022/08/23 01:11:36;;;;;;;2.90;2.20;;;;;;;18.30;51.18;96622.13;4897190;29;20095;-73
2022/08/23 01:14:09;;;;;;;3.40;2.00;;;;;;;18.24;51.62;96614.31;4897670;29;20143;-74
2022/08/23 01:16:44;;;;;;;3.00;1.92;;;;;;;18.24;55.08;96615.09;4897488;29;20060;-74
2022/08/23 01:19:19;;;;;;;3.47;1.75;;;;;;;18.27;53.16;96611.19;4897315;29;20503;-73
2022/08/23 01:21:52;;;;;;;3.20;2.28;;;;;;;18.22;52.22;96617.16;4896929;29;20143;-74
2022/08/23 01:24:22;;;;;;;2.25;1.98;;;;;;;18.17;52.56;96613.59;4897040;29;20057;-73
2022/08/23 01:27:11;;;;;;;2.05;1.85;;;;;;;18.12;52.75;96616.94;4897553;29;20091;-73
2022/08/23 01:29:40;;;;;;;2.40;2.17;;;;;;;18.06;52.59;96618.66;4897295;29;20087;-74
2022/08/23 01:32:08;;;;;;;3.42;2.47;;;;;;;17.99;53.01;96623.22;4897008;29;20517;-73
2022/08/23 01:34:37;;;;;;;4.82;1.83;;;;;;;17.89;53.24;96623.00;4897042;29;20099;-73
2022/08/23 01:37:12;;;;;;;3.03;1.85;;;;;;;17.78;53.35;96623.75;4897275;29;20048;-74
2022/08/23 01:39:41;;;;;;;2.13;1.90;;;;;;;17.70;53.42;96622.25;4897262;29;20104;-73
2022/08/23 01:42:10;;;;;;;1.92;1.80;;;;;;;17.63;53.64;96624.97;4896972;29;20057;-73
2022/08/23 01:44:37;;;;;;;2.83;1.80;;;;;;;17.58;53.83;96627.50;4897106;29;20080;-73
2022/08/23 01:47:06;;;;;;;2.13;1.90;;;;;;;17.53;53.81;96624.72;4897055;29;20053;-73
2022/08/23 01:49:34;;;;;;;3.95;2.17;;;;;;;17.48;53.99;96628.03;4897590;29;20053;-73
2022/08/23 01:52:02;;;;;;;4.07;2.03;;;;;;;17.44;54.04;96632.16;4896854;29;20139;-73
2022/08/23 01:54:30;;;;;;;3.92;2.13;;;;;;;17.40;54.24;96628.34;4897224;29;20102;-73
2022/08/23 01:56:59;;;;;;;2.70;2.20;;;;;;;17.42;54.36;96641.31;4896978;29;20113;-74
2022/08/23 01:59:26;;;;;;;2.92;1.80;;;;;;;17.41;54.25;96637.06;4896845;29;20139;-74
2022/08/23 02:01:54;;;;;;;2.53;2.33;;;;;;;17.38;54.44;96638.34;4896510;29;20092;-74
2022/08/23 02:04:22;;;;;;;2.03;1.80;;;;;;;17.36;54.59;96634.28;4896962;29;20056;-73
2022/08/23 02:06:49;;;;;;;3.72;2.25;;;;;;;17.31;54.78;96634.97;4896741;29;20578;-74
2022/08/23 02:09:17;;;;;;;4.20;2.47;;;;;;;17.24;54.89;96629.78;4896918;29;20048;-73
2022/08/23 02:11:46;;;;;;;5.60;2.53;;;;;;;17.19;54.88;96640.19;4896685;29;20053;-74
2022/08/23 02:14:18;;;;;;;3.72;2.47;;;;;;;17.15;55.55;96633.75;4916592;29;20028;-73
2022/08/23 02:16:47;;;;;;;3.78;2.55;;;;;;;17.12;55.54;96633.38;4921210;29;20064;-73
2022/08/23 02:19:29;;;;;;;3.70;2.30;;;;;;;17.07;55.72;96641.97;4906517;29;20072;-73
2022/08/23 02:21:57;;;;;;;2.75;2.17;;;;;;;17.08;55.94;96638.31;4898847;29;20139;-73
2022/08/23 02:24:25;;;;;;;2.58;2.30;;;;;;;17.09;56.87;96639.91;4898501;29;20103;-74
2022/08/23 02:27:02;;;;;;;4.95;2.58;;;;;;;17.09;56.24;96637.28;4897144;29;20814;-74
2022/08/23 02:29:31;;;;;;;2.35;2.15;;;;;;;17.09;56.44;96645.19;4897110;29;20084;-73
2022/08/23 02:31:59;;;;;;;3.72;2.13;;;;;;;17.05;56.04;96644.84;4897649;29;20059;-74
2022/08/23 02:34:28;;;;;;;5.38;2.40;;;;;;;16.99;55.97;96648.34;4897290;29;20144;-73
2022/08/23 02:37:01;;;;;;;2.55;1.90;;;;;;;16.98;56.71;96651.19;4913142;29;20081;-73
2022/08/23 02:39:30;;;;;;;2.50;2.05;;;;;;;17.04;58.34;96652.97;4916688;29;20059;-73
2022/08/23 02:41:57;;;;;;;2.10;1.90;;;;;;;17.06;56.75;96656.19;4908890;29;20052;-73
2022/08/23 02:44:25;;;;;;;4.90;2.25;;;;;;;17.04;56.45;96655.59;4901596;29;20083;-74
2022/08/23 02:46:54;;;;;;;3.22;2.40;;;;;;;17.00;56.36;96662.31;4901146;29;20055;-73
2022/08/23 02:49:22;;;;;;;3.88;2.17;;;;;;;16.94;56.56;96661.38;4900256;29;20507;-74
2022/08/23 02:51:49;;;;;;;2.85;2.00;;;;;;;16.91;56.49;96666.28;4899996;29;20566;-73
2022/08/23 02:54:17;;;;;;;3.58;2.30;;;;;;;16.87;56.42;96656.16;4900436;29;20057;-72
2022/08/23 02:56:45;;;;;;;2.53;2.30;;;;;;;16.86;56.63;96656.41;4900445;29;20080;-73
2022/08/23 02:59:12;;;;;;;2.10;1.90;;;;;;;16.84;56.69;96667.16;4899892;29;20504;-73
2022/08/23 03:01:40;;;;;;;3.15;2.50;;;;;;;16.80;56.42;96663.34;4900048;29;20063;-73
2022/08/23 03:04:10;;;;;;;3.65;2.20;;;;;;;16.78;57.39;96667.22;4899756;29;20512;-73
2022/08/23 03:06:38;;;;;;;2.20;2.08;;;;;;;16.74;56.77;96661.56;4900200;29;20538;-73
2022/08/23 03:09:07;;;;;;;4.03;2.25;;;;;;;16.68;56.85;96652.72;4900060;29;20104;-73
2022/08/23 03:11:35;;;;;;;2.30;2.08;;;;;;;16.65;57.02;96653.13;4899607;29;20076;-73
2022/08/23 03:14:04;;;;;;;2.35;1.98;;;;;;;16.62;56.99;96660.69;4899682;29;20056;-74
2022/08/23 03:16:31;;;;;;;3.35;2.13;;;;;;;16.57;56.95;96657.88;4899469;29;20496;-74
2022/08/23 03:19:01;;;;;;;3.03;2.22;;;;;;;16.52;57.17;96655.13;4899418;29;20123;-73
2022/08/23 03:21:30;;;;;;;3.13;2.05;;;;;;;16.46;57.34;96651.50;4899167;29;20048;-74
2022/08/23 03:23:58;;;;;;;2.72;2.47;;;;;;;16.43;57.44;96659.84;4899492;29;20135;-73
2022/08/23 03:26:26;;;;;;;2.78;2.20;;;;;;;16.37;57.63;96650.19;4899456;29;20117;-73
2022/08/23 03:28:54;;;;;;;4.53;2.25;;;;;;;16.35;57.67;96649.59;4899606;29;20621;-74
2022/08/23 03:31:23;;;;;;;2.70;2.15;;;;;;;16.35;59.32;96654.88;4898628;29;20080;-73
2022/08/23 03:33:51;;;;;;;3.13;2.58;;;;;;;16.36;58.34;96657.28;4897543;29;20108;-73
2022/08/23 03:36:18;;;;;;;2.95;2.20;;;;;;;16.41;59.72;96652.16;4897675;29;20132;-73
2022/08/23 03:38:56;;;;;;;4.03;2.28;;;;;;;16.50;60.35;96649.25;4898760;29;20087;-74
2022/08/23 03:41:24;;;;;;;2.88;2.20;;;;;;;16.56;60.53;96651.03;4898594;29;20076;-73
2022/08/23 03:43:51;;;;;;;3.45;2.80;;;;;;;16.58;60.90;96649.78;4898822;29;20044;-74
2022/08/23 03:46:22;;;;;;;2.70;2.00;;;;;;;16.65;61.70;96660.25;4899317;29;20086;-74
2022/08/23 03:48:51;;;;;;;3.17;2.10;;;;;;;16.68;59.35;96659.78;4897481;29;20064;-74
2022/08/23 03:51:18;;;;;;;3.80;2.45;;;;;;;16.64;58.35;96654.19;4894356;29;20558;-74
2022/08/23 03:53:48;;;;;;;3.60;2.25;;;;;;;16.53;58.02;96657.53;4904608;29;20080;-74
2022/08/23 03:56:23;;;;;;;4.20;2.40;;;;;;;16.47;58.22;96659.19;4898602;29;20086;-74
2022/08/23 03:58:51;;;;;;;5.60;2.60;;;;;;;16.40;58.33;96653.19;4901948;29;20590;-74
2022/08/23 04:01:19;;;;;;;3.53;2.08;;;;;;;16.38;58.67;96657.09;4899044;29;20525;-75
2022/08/23 04:03:50;;;;;;;3.17;2.28;;;;;;;16.38;58.28;96659.72;4899136;29;20123;-74
2022/08/23 04:06:18;;;;;;;3.80;2.33;;;;;;;16.33;58.05;96662.16;4899002;29;20483;-74
2022/08/23 04:08:46;;;;;;;4.07;2.17;;;;;;;16.28;58.37;96657.56;4912542;29;20084;-74
2022/08/23 04:11:13;;;;;;;2.88;2.40;;;;;;;16.22;58.29;96655.78;4900178;29;20044;-75
2022/08/23 04:13:42;;;;;;;4.25;2.65;;;;;;;16.20;58.73;96663.09;4898485;29;20049;-75
2022/08/23 04:16:10;;;;;;;2.65;2.30;;;;;;;16.17;58.72;96671.44;4898468;29;20086;-74
2022/08/23 04:18:38;;;;;;;3.35;2.28;;;;;;;16.19;58.69;96666.75;4898542;29;20076;-74
2022/08/23 04:21:09;;;;;;;3.30;2.28;;;;;;;16.18;58.82;96675.66;4898002;29;20080;-74
2022/08/23 04:23:38;;;;;;;3.08;2.40;;;;;;;16.14;58.69;96669.22;4919542;23;20085;-72
2022/08/23 04:26:06;;;;;;;7.28;2.90;;;;;;;16.10;58.90;96675.94;4908885;29;20053;-73
2022/08/23 04:28:37;;;;;;;5.20;2.92;;;;;;;16.09;58.83;96682.22;4898083;29;20414;-72
2022/08/23 04:31:06;;;;;;;4.57;2.80;;;;;;;16.05;59.11;96677.38;4897870;29;20048;-72
2022/08/23 04:33:34;;;;;;;4.38;2.35;;;;;;;16.00;59.16;96676.41;4895617;29;20136;-73
2022/08/23 04:36:06;;;;;;;4.13;2.85;;;;;;;15.92;59.18;96682.75;4876770;29;20049;-72
2022/08/23 04:38:34;;;;;;;2.65;2.33;;;;;;;15.85;59.42;96688.06;4879161;29;20081;-72
2022/08/23 04:43:48;;;;;;;4.47;2.60;;;;;;;15.91;60.11;96691.66;4878936;29;20139;-72
2022/08/23 04:46:17;;;;;;;3.60;2.03;;;;;;;15.98;62.79;96692.44;4878899;29;20579;-73
2022/08/23 04:48:45;;;;;;;2.85;2.65;;;;;;;16.00;60.11;96690.38;4879038;29;20135;-72
2022/08/23 04:51:13;;;;;;;4.47;3.22;;;;;;;16.01;61.08;96686.72;4878437;29;20105;-72
2022/08/23 04:53:41;;;;;;;5.70;3.47;;;;;;;16.00;59.81;96685.09;4879184;29;20679;-72
2022/08/23 04:56:09;;;;;;;4.95;3.25;;;;;;;15.98;59.82;96684.53;4879448;29;20099;-72
2022/08/23 04:58:38;;;;;;;6.97;4.00;;;;;;;15.97;59.78;96696.06;4882091;29;20048;-72
2022/08/23 05:01:09;;;;;;;6.60;3.75;;;;;;;15.95;59.58;96694.66;4895378;29;20108;-72
2022/08/23 05:03:38;;;;;;;5.60;3.78;;;;;;;15.95;60.26;96692.84;4880002;29;20080;-72
2022/08/23 05:06:06;;;;;;;7.78;4.68;;;;;;;15.98;59.52;96702.94;4882280;29;20049;-73
2022/08/23 05:08:35;;;;;;;8.27;5.38;;;;;;;15.96;59.33;96702.34;4888661;29;20084;-73
2022/08/23 05:11:04;;;;;;;9.63;6.00;;;;;;;15.93;59.69;96708.03;4882384;29;20053;-72
2022/08/23 05:13:32;;;;;;;6.80;4.97;;;;;;;15.93;59.84;96709.84;4880221;29;20057;-72
2022/08/23 05:16:01;;;;;;;7.18;4.75;;;;;;;15.94;59.58;96717.53;4881519;29;20061;-72
2022/08/23 05:18:28;;;;;;;8.05;4.35;;;;;;;15.94;59.75;96714.91;4879162;29;20585;-73
2022/08/23 05:20:57;;;;;;;8.77;4.20;;;;;;;15.97;59.75;96721.56;4878498;29;20080;-73
2022/08/23 05:23:25;;;;;;;6.00;4.15;;;;;;;16.01;60.88;96723.56;4878431;29;20084;-72
2022/08/23 05:25:59;;;;;;;7.78;4.72;;;;;;;16.04;59.99;96725.75;4878018;29;20045;-72
2022/08/23 05:28:29;;;;;;;8.13;4.38;;;;;;;16.08;59.82;96722.72;4878623;29;20131;-74
2022/08/23 05:30:58;;;;;;;4.60;3.60;;;;;;;16.09;59.70;96724.31;4859896;29;20103;-72
2022/08/23 05:33:29;;;;;;;5.18;3.45;;;;;;;16.14;60.22;96727.13;4876405;29;20145;-72
2022/08/23 05:35:58;;;;;;;5.68;3.60;;;;;;;16.19;60.06;96719.38;4878262;29;20143;-73
2022/08/23 05:38:26;;;;;;;5.22;3.95;;;;;;;16.23;60.26;96721.38;4878330;29;20176;-72
2022/08/23 05:40:56;;;;;;;6.00;4.40;;;;;;;16.28;59.74;96723.34;4877685;29;20077;-72
2022/08/23 05:43:26;;;;;;;6.53;4.13;;;;;;;16.32;59.97;96719.28;4878298;29;20144;-72
2022/08/23 05:46:00;;;;;;;5.07;3.97;;;;;;;16.38;62.39;96722.91;4877680;29;20076;-72
2022/08/23 05:48:30;;;;;;;8.02;4.07;;;;;;;16.44;62.23;96717.56;4878317;29;20091;-72
2022/08/23 05:51:07;;;;;;;5.35;3.65;;;;;;;16.52;63.07;96723.56;4877716;29;20053;-72
2022/08/23 05:53:36;;;;;;;6.55;4.22;;;;;;;16.58;61.05;96725.34;4878108;29;20081;-72
2022/08/23 05:56:15;;;;;;;4.47;3.55;;;;;;;16.62;62.33;96729.97;4878324;29;20053;-72
2022/08/23 05:58:44;;;;;;;5.82;3.90;;;;;;;16.63;59.79;96736.03;4892262;29;20079;-74
2022/08/23 06:01:11;;;;;;;6.20;3.40;;;;;;;16.65;59.77;96737.41;4896813;29;20080;-74
2022/08/23 06:03:39;;;;;;;4.80;3.10;;;;;;;16.67;59.36;96743.28;4880329;29;20057;-73
2022/08/23 06:06:09;;;;;;;4.82;3.10;;;;;;;16.67;58.78;96738.00;4878483;29;20095;-72
2022/08/23 06:08:38;;;;;;;4.68;2.85;;;;;;;16.67;58.86;96742.47;4878297;29;20077;-73
2022/08/23 06:11:08;;;;;;;3.22;2.65;;;;;;;16.73;60.71;96743.47;4878041;29;20136;-72
2022/08/23 06:13:39;;;;;;;2.75;2.45;;;;;;;16.78;59.30;96739.13;4880957;29;20467;-72
2022/08/23 06:16:08;;;;;;;5.32;3.13;;;;;;;16.88;62.08;96743.94;4881391;29;20053;-73
2022/08/23 06:18:43;;;;;;;7.68;4.50;;;;;;;16.97;61.21;96749.75;4882084;29;20063;-72
2022/08/23 06:21:14;;;;;;;7.30;4.47;;;;;;;17.03;59.76;96751.47;4881473;29;20055;-71
2022/08/23 06:23:42;;;;;;;9.38;4.55;;;;;;;17.05;59.37;96749.44;4881777;29;20156;-76
2022/08/23 06:26:12;;;;;;;5.20;4.68;;;;;;;17.08;59.11;96759.56;4881497;29;20068;-71
2022/08/23 06:28:40;;;;;;;6.63;4.82;;;;;;;17.11;58.98;96753.81;4881806;29;20049;-78
2022/08/23 06:31:43;;;;;;;8.82;4.57;;;;;;;17.18;59.00;96754.56;4881629;29;20484;-75
2022/08/23 06:34:06;;;;;;;6.50;3.55;;;;;;;17.27;60.56;96758.53;4881122;29;20088;-76
2022/08/23 06:36:36;;;;;;;5.72;4.45;;;;;;;17.37;61.80;96762.47;4881768;29;20061;-76
2022/08/23 06:39:04;;;;;;;4.63;4.13;;;;;;;17.48;61.23;96761.72;4881329;29;20053;-76
2022/08/23 06:41:32;;;;;;;8.00;4.07;;;;;;;17.53;59.16;96759.22;4880922;29;20147;-75
2022/08/23 06:44:00;;;;;;;12.57;4.57;;;;;;;17.59;58.58;96760.97;4881331;29;20512;-77
2022/08/23 06:46:29;;;;;;;5.82;4.22;;;;;;;17.67;59.34;96763.31;4881047;29;20733;-75
2022/08/23 06:48:58;;;;;;;4.80;4.15;;;;;;;17.75;58.30;96764.84;4881216;29;20139;-75
2022/08/23 06:51:29;;;;;;;4.35;3.95;;;;;;;17.83;57.52;96771.69;4880907;29;20057;-75
2022/08/23 06:54:00;;;;;;;6.22;4.00;;;;;;;17.92;56.80;96765.84;4881083;29;20056;-75
2022/08/23 06:56:30;;;;;;;6.68;3.90;;;;;;;18.00;56.84;96772.66;4881066;29;20080;-76
2022/08/23 06:58:58;;;;;;;6.15;3.50;;;;;;;18.10;56.32;96762.38;4886819;29;20076;-75
2022/08/23 07:01:31;;;;;;;7.95;4.28;;;;;;;18.22;56.16;96766.88;4885223;29;20155;-76
2022/08/23 07:04:18;;;;;;;5.60;3.30;;;;;;;18.35;56.51;96777.22;4881153;29;20427;-76
2022/08/23 07:06:46;;;;;;;6.32;3.80;;;;;;;18.47;56.08;96778.03;4881094;29;20746;-75
2022/08/23 07:09:17;;;;;;;6.70;2.85;;;;;;;18.59;55.89;96775.44;4880720;29;20524;-76
2022/08/23 07:11:45;;;;;;;6.78;3.08;;;;;;;18.71;56.99;96778.88;4879697;29;20103;-76
2022/08/23 07:14:16;;;;;;;4.68;2.72;;;;;;;18.83;55.25;96776.28;4880231;29;20077;-75
2022/08/23 07:16:47;;;;;;;6.70;2.90;;;;;;;18.96;55.81;96782.34;4880722;29;20140;-77
2022/08/23 07:19:15;;;;;;;5.05;2.83;;;;;;;19.06;54.55;96785.22;4880745;29;20153;-76
2022/08/23 07:21:43;;;;;;;2.90;2.60;;;;;;;19.19;53.87;96790.28;4873030;29;20092;-76
2022/08/23 07:24:17;;;;;;;5.40;2.90;;;;;;;19.32;53.66;96786.59;4862395;29;20055;-76
2022/08/23 07:26:47;;;;;;;9.05;3.05;;;;;;;19.45;53.10;96788.16;4863382;29;20819;-78
2022/08/23 07:29:16;;;;;;;4.82;2.45;;;;;;;19.60;52.91;96791.13;4881745;29;20092;-78
2022/08/23 07:31:46;;;;;;;3.55;2.65;;;;;;;19.75;53.18;96793.31;4883638;29;20128;-78
2022/08/23 07:34:14;;;;;;;3.22;2.65;;;;;;;19.91;53.10;96797.03;4884221;29;20477;-79
2022/08/23 07:36:44;;;;;;;4.70;2.83;;;;;;;20.07;52.19;96793.66;4884642;29;20060;-78
2022/08/23 07:39:13;;;;;;;5.03;2.88;;;;;;;20.21;51.47;96790.69;4880888;29;20080;-74
2022/08/23 07:41:43;;;;;;;5.85;2.47;;;;;;;20.35;50.67;96790.13;4881597;29;20076;-79
2022/08/23 07:44:11;;;;;;;5.32;2.65;;;;;;;20.50;50.01;96800.19;4878265;29;20077;-79
2022/08/23 07:46:46;;;;;;;4.47;2.60;;;;;;;20.67;49.66;96804.75;4894260;29;20108;-79
2022/08/23 07:49:15;;;;;;;7.50;2.85;;;;;;;20.82;49.29;96801.53;4888827;29;20067;-76
2022/08/23 07:51:46;;;;;;;3.22;2.20;;;;;;;21.01;49.63;96794.09;4885988;29;20052;-76
2022/08/23 07:54:14;;;;;;;2.97;1.98;;;;;;;21.20;49.45;96798.09;4916429;29;20068;-78
2022/08/23 07:56:44;;;;;;;3.42;2.53;;;;;;;21.40;48.64;96795.69;4919535;29;20025;-77
2022/08/23 07:59:15;;;;;;;3.20;2.30;;;;;;;21.59;47.98;96800.75;4905864;29;20045;-78
2022/08/23 08:01:52;;;;;;;3.50;2.78;;;;;;;21.77;47.98;96803.06;4905017;29;20083;-77
2022/08/23 08:04:23;;;;;;;3.80;2.55;;;;;;;21.96;47.17;96800.09;4904654;29;20055;-77
2022/08/23 08:06:51;;;;;;;3.17;2.80;;;;;;;22.15;47.04;96801.38;4899083;29;20068;-77
2022/08/23 08:09:41;;;;;;;5.40;3.03;;;;;;;22.34;46.94;96801.03;4903228;29;20045;-78
2022/08/23 08:12:12;;;;;;;5.95;3.00;;;;;;;22.52;46.97;96795.38;4986675;23;20081;-78
2022/08/23 08:17:29;;;;;;;9.18;4.45;;;;;;;22.93;46.66;96803.63;5394877;23;21026;-78
2022/08/23 08:31:19;;;;;;;4.72;2.22;;;;;;;23.91;44.18;96806.84;4917369;29;20622;-78
2022/08/23 08:34:02;;;;;;;3.65;1.95;;;;;;;24.12;42.96;96808.50;4920978;29;20057;-78
2022/08/23 08:36:46;;;;;;;4.00;1.63;;;;;;;24.31;42.52;96814.09;4914679;29;20092;-79
2022/08/23 08:39:32;;;;;;;1.80;1.50;;;;;;;24.48;40.02;96816.56;4902364;29;20530;-78
2022/08/23 08:42:33;;;;;;;3.80;1.60;;;;;;;24.59;39.58;96812.84;4877692;29;20124;-77
2022/08/23 08:45:11;;;;;;;2.60;1.60;;;;;;;24.75;38.15;96820.84;4915430;29;20056;-78
2022/08/23 08:47:47;;;;;;;3.70;1.35;;;;;;;24.89;38.78;96824.56;4904418;29;20049;-78
2022/08/23 10:17:40;;;;;;;3.00;1.25;;;;;;;28.21;29.56;96809.94;4079991;23;20107;-84
2022/08/23 10:20:20;;;;;;;1.33;1.20;;;;;;;28.22;29.52;96816.09;4940183;29;20044;-85
2022/08/23 10:22:55;;;;;;;2.00;1.35;;;;;;;28.25;28.81;96805.59;4940058;29;20039;-84
2022/08/23 10:25:33;;;;;;;2.20;1.60;;;;;;;28.30;29.83;96810.88;4921002;29;20041;-83
2022/08/23 14:13:35;;;;;;;2.85;1.83;;;;;;;28.55;31.34;96723.06;4903801;29;20427;-80
2022/08/23 14:16:06;;;;;;;3.45;1.38;;;;;;;28.54;31.58;96721.47;4907918;29;20072;-80
2022/08/23 14:18:54;;;;;;;4.00;1.60;;;;;;;28.52;30.60;96707.56;4889378;29;20060;-80
2022/08/23 14:21:49;;;;;;;3.17;1.38;;;;;;;28.51;30.26;96706.75;4914423;29;20112;-80
2022/08/23 14:27:16;;;;;;;2.38;1.67;;;;;;;28.43;31.54;96714.66;5203574;23;20056;-74
2022/08/23 14:29:45;;;;;;;2.03;1.52;;;;;;;28.32;31.88;96714.81;4899367;29;20134;-74
2022/08/23 14:32:13;;;;;;;5.38;1.58;;;;;;;28.25;32.09;96703.69;4912810;29;20053;-80
2022/08/23 14:34:41;;;;;;;2.55;1.50;;;;;;;28.25;32.08;96698.31;4920339;29;20053;-79
2022/08/23 14:37:26;;;;;;;1.67;1.27;;;;;;;28.28;31.58;96711.13;4918327;29;20052;-80
2022/08/23 14:47:07;;;;;;;5.72;2.25;;;;;;;28.28;31.33;96703.09;4964122;23;20049;-82
2022/08/23 14:52:24;;;;;;;8.85;2.15;;;;;;;28.20;31.31;96698.38;5620408;23;20085;-80
2022/08/23 14:54:51;;;;;;;4.10;2.03;;;;;;;28.17;30.98;96693.59;4903154;29;20072;-79
2022/08/23 14:57:19;;;;;;;5.78;1.73;;;;;;;28.15;31.74;96704.63;4884491;29;20138;-79
2022/08/23 14:59:47;;;;;;;2.25;1.58;;;;;;;28.14;31.13;96691.50;4908884;29;20080;-80
2022/08/23 15:02:21;;;;;;;3.97;1.83;;;;;;;28.15;31.04;96698.47;4901801;29;20075;-80
2022/08/23 15:04:48;;;;;;;2.78;1.75;;;;;;;28.18;30.98;96702.44;4901614;29;20139;-80
2022/08/23 15:07:16;;;;;;;1.45;1.30;;;;;;;28.16;31.09;96697.38;4901900;29;20152;-80
2022/08/23 15:09:46;;;;;;;2.78;1.58;;;;;;;28.14;31.32;96699.53;4902674;29;20059;-79
2022/08/23 15:12:14;;;;;;;4.03;1.50;;;;;;;28.15;31.06;96706.50;4901772;29;20419;-80
2022/08/23 15:15:01;;;;;;;2.85;1.40;;;;;;;28.15;31.02;96703.84;4901770;29;20048;-80
2022/08/23 15:17:30;;;;;;;4.15;1.75;;;;;;;28.13;30.45;96696.06;4901979;29;20132;-83
2022/08/23 15:19:58;;;;;;;2.13;1.75;;;;;;;28.12;30.73;96709.78;4902711;29;20135;-79
2022/08/23 15:22:26;;;;;;;3.35;1.42;;;;;;;28.11;30.38;96702.81;4903240;29;20075;-80
2022/08/23 15:24:54;;;;;;;4.20;1.80;;;;;;;28.10;30.60;96703.94;4902818;29;20054;-79
2022/08/23 15:27:23;;;;;;;7.63;2.25;;;;;;;28.08;30.50;96701.53;4903031;29;20072;-80
2022/08/23 15:29:51;;;;;;;4.25;1.60;;;;;;;28.05;30.75;96699.41;4903040;29;20475;-80
2022/08/23 15:32:18;;;;;;;2.17;1.60;;;;;;;28.04;31.00;96694.34;4903101;29;20135;-80
2022/08/23 15:34:50;;;;;;;2.35;1.33;;;;;;;28.01;30.27;96698.44;4907900;29;20073;-80
2022/08/23 15:37:21;;;;;;;1.50;1.40;;;;;;;27.94;30.34;96696.13;4900711;29;20549;-78
2022/08/23 15:39:49;;;;;;;5.28;2.00;;;;;;;27.88;30.75;96689.22;4904046;29;20072;-80
2022/08/23 15:42:17;;;;;;;3.20;1.42;;;;;;;27.85;30.80;96695.16;4905003;29;20057;-80
2022/08/23 15:44:47;;;;;;;3.88;1.63;;;;;;;27.82;30.97;96695.72;4901512;29;20057;-79
2022/08/23 15:47:21;;;;;;;2.60;1.48;;;;;;;27.79;30.56;96690.13;4902445;29;20048;-80
2022/08/23 15:49:49;;;;;;;3.50;1.52;;;;;;;27.74;30.73;96686.44;4904425;29;20129;-79
2022/08/23 15:52:18;;;;;;;1.52;1.35;;;;;;;27.70;30.78;96688.13;4905233;29;20138;-80
2022/08/23 15:54:47;;;;;;;2.45;1.80;;;;;;;27.70;31.07;96688.13;4920037;29;20103;-78
2022/08/23 15:57:17;;;;;;;5.57;1.50;;;;;;;27.68;30.99;96694.84;4899863;29;20131;-80
2022/08/23 15:59:45;;;;;;;4.30;1.52;;;;;;;27.66;31.05;96688.97;4900695;29;20086;-78
2022/08/23 16:02:12;;;;;;;1.58;1.48;;;;;;;27.64;30.64;96691.13;4881609;29;20144;-79
2022/08/23 16:04:40;;;;;;;1.65;1.40;;;;;;;27.61;30.80;96689.84;4888792;29;20369;-80
2022/08/23 16:07:13;;;;;;;1.60;1.50;;;;;;;27.60;30.43;96695.50;4907455;29;20087;-80
2022/08/23 16:09:42;;;;;;;3.30;1.55;;;;;;;27.57;30.92;96693.38;4903887;29;20131;-79
2022/08/23 16:12:10;;;;;;;2.42;1.60;;;;;;;27.53;30.89;96688.63;4901891;29;20079;-80
2022/08/23 16:14:37;;;;;;;1.52;1.42;;;;;;;27.51;30.77;96692.69;4901235;29;20144;-80
2022/08/23 16:17:05;;;;;;;2.17;1.40;;;;;;;27.48;30.85;96685.19;4901712;29;20566;-80
2022/08/23 16:19:33;;;;;;;4.40;1.65;;;;;;;27.46;30.60;96684.69;4901652;29;20135;-80
2022/08/23 16:22:01;;;;;;;4.63;1.77;;;;;;;27.43;30.74;96688.75;4901729;29;20128;-80
2022/08/23 16:24:28;;;;;;;1.60;1.50;;;;;;;27.42;31.25;96687.16;4901356;29;20140;-80
2022/08/23 16:26:57;;;;;;;2.95;1.50;;;;;;;27.41;31.46;96685.56;4901524;29;20091;-80
2022/08/23 16:29:30;;;;;;;2.15;1.23;;;;;;;27.39;31.28;96685.03;4902398;29;20088;-80
2022/08/23 16:31:58;;;;;;;2.78;1.75;;;;;;;27.37;31.42;96683.75;4901983;29;20150;-80
2022/08/23 16:34:26;;;;;;;3.45;1.70;;;;;;;27.34;31.60;96685.13;4902000;29;20143;-80
2022/08/23 16:36:57;;;;;;;4.63;1.70;;;;;;;27.31;31.86;96689.19;4902047;29;20143;-80
2022/08/23 16:39:25;;;;;;;1.58;1.42;;;;;;;27.27;31.53;96679.31;4901502;29;20049;-80
2022/08/23 16:41:54;;;;;;;2.40;1.77;;;;;;;27.24;31.69;96686.03;4902160;29;20083;-79
2022/08/23 16:44:23;;;;;;;2.33;1.58;;;;;;;27.22;31.83;96682.03;4902092;29;20494;-80
2022/08/23 16:46:51;;;;;;;3.30;1.60;;;;;;;27.21;31.82;96685.78;4901048;29;20084;-80
2022/08/23 16:49:19;;;;;;;3.08;1.88;;;;;;;27.19;31.55;96685.28;4900370;29;20057;-80
2022/08/23 16:51:47;;;;;;;3.25;1.70;;;;;;;27.17;32.02;96692.81;4904044;29;20116;-79
2022/08/23 16:54:17;;;;;;;3.25;1.67;;;;;;;27.16;31.70;96688.50;4935293;29;20090;-79
2022/08/23 16:56:45;;;;;;;6.05;1.77;;;;;;;27.16;31.48;96693.88;4929334;29;20150;-80
2022/08/23 16:59:13;;;;;;;3.38;1.83;;;;;;;27.14;32.03;96694.19;4906318;29;20083;-80
2022/08/23 17:01:49;;;;;;;4.50;1.58;;;;;;;27.12;31.52;96699.81;4914337;29;20080;-79
2022/08/23 17:04:18;;;;;;;1.87;1.57;;;;;;;27.10;32.02;96699.28;4918220;29;20055;-77
2022/08/23 17:06:46;;;;;;;2.65;1.92;;;;;;;27.09;32.87;96700.38;4915299;29;20534;-73
2022/08/23 17:09:14;;;;;;;5.88;2.20;;;;;;;27.06;34.10;96700.94;4899909;29;20559;-75
2022/08/23 17:11:43;;;;;;;5.30;2.10;;;;;;;27.01;34.36;96700.22;4890083;29;20056;-74
2022/08/23 17:14:11;;;;;;;5.82;2.10;;;;;;;26.94;34.83;96695.22;4886192;29;20503;-74
2022/08/23 17:16:39;;;;;;;3.33;1.88;;;;;;;26.88;33.73;96694.44;4901224;29;20045;-74
2022/08/23 17:19:08;;;;;;;3.28;1.67;;;;;;;26.83;32.97;96696.38;4900432;29;20108;-74
2022/08/23 17:21:37;;;;;;;6.38;1.95;;;;;;;26.78;32.99;96704.47;4879572;29;20099;-73
2022/08/23 17:24:05;;;;;;;7.80;4.93;;;;;;;26.74;33.68;96704.22;4882653;29;20089;-74
2022/08/23 17:26:32;;;;;;;9.43;6.28;;;;;;;26.71;33.03;96710.16;4898686;29;20064;-79
2022/08/23 17:29:00;;;;;;;2.08;1.80;;;;;;;26.68;32.51;96708.84;4908700;29;20071;-80
2022/08/23 17:31:28;;;;;;;4.20;1.77;;;;;;;26.66;32.22;96711.00;4909374;29;20064;-80
2022/08/23 17:34:01;;;;;;;3.38;1.67;;;;;;;26.63;32.23;96708.91;4910756;29;20080;-80
2022/08/23 17:36:34;;;;;;;2.78;1.88;;;;;;;26.62;32.42;96712.66;4909838;29;20064;-83